Time;durP1;ratioP1;P1;durP2;ratioP2;P2;SDS_P1;SDS_P2;PMS_P1;PMS_P2;Temp;Humidity;BMP_temperature;BMP_pressure;BME280_temperature;BME280_humidity;BME280_pressure;Samples;Min_cycle;Max_cycle;Signal;HPM_P1;HPM_P2
2022/05/25 00:00:25;;;;;;;4.18;1.80;;;;;;;;;;5011059;28;20033;-54
2022/05/25 00:02:52;;;;;;;7.80;2.05;;;;;;;;;;5022614;28;20397;-54
2022/05/25 00:05:18;;;;;;;3.90;1.80;;;;;;;;;;5030897;28;20025;-53
2022/05/25 00:07:44;;;;;;;3.75;1.92;;;;;;;;;;5031092;28;20103;-54
2022/05/25 00:10:11;;;;;;;2.45;1.90;;;;;;;;;;5031013;28;20080;-54
2022/05/25 00:12:37;;;;;;;3.50;1.80;;;;;;;;;;5031252;28;20048;-52
2022/05/25 00:15:04;;;;;;;3.40;2.00;;;;;;;;;;5023238;28;20029;-54
2022/05/25 00:17:30;;;;;;;2.30;1.90;;;;;;;;;;5029773;28;20033;-54
2022/05/25 00:19:59;;;;;;;2.88;1.85;;;;;;;;;;5029594;28;20056;-53
2022/05/25 00:22:25;;;;;;;3.15;2.03;;;;;;;;;;5031299;28;20017;-54
2022/05/25 00:24:51;;;;;;;2.53;2.00;;;;;;;;;;5030914;28;20029;-54
2022/05/25 00:27:20;;;;;;;2.72;2.00;;;;;;;;;;5031175;28;20017;-53
2022/05/25 00:29:46;;;;;;;3.13;2.05;;;;;;;;;;5024918;28;20037;-51
2022/05/25 00:32:12;;;;;;;3.70;2.38;;;;;;;;;;5030200;28;20469;-51
2022/05/25 00:34:38;;;;;;;3.40;2.00;;;;;;;;;;5028998;28;20021;-56
2022/05/25 00:37:04;;;;;;;2.60;1.83;;;;;;;;;;5030326;28;20396;-53
2022/05/25 00:39:30;;;;;;;3.10;1.88;;;;;;;;;;5031014;28;20044;-54
2022/05/25 00:41:56;;;;;;;4.18;2.45;;;;;;;;;;5030517;28;20033;-55
2022/05/25 00:44:22;;;;;;;3.58;2.22;;;;;;;;;;5019797;28;20029;-53
2022/05/25 00:46:48;;;;;;;4.35;2.13;;;;;;;;;;5028968;28;20109;-52
2022/05/25 00:49:19;;;;;;;3.03;2.30;;;;;;;;;;5028935;28;20037;-53
2022/05/25 00:51:49;;;;;;;2.72;1.58;;;;;;;;;;5030419;28;20464;-52
2022/05/25 00:54:18;;;;;;;2.65;1.73;;;;;;;;;;5030723;28;20109;-56
2022/05/25 00:56:45;;;;;;;3.63;2.47;;;;;;;;;;5030729;28;20044;-54
2022/05/25 00:59:14;;;;;;;1.98;1.65;;;;;;;;;;5016978;28;20116;-53
2022/05/25 01:01:40;;;;;;;2.30;1.75;;;;;;;;;;5021775;28;20451;-51
2022/05/25 01:04:06;;;;;;;2.53;1.92;;;;;;;;;;5031587;28;20109;-49
2022/05/25 01:06:38;;;;;;;1.90;1.70;;;;;;;;;;5034555;28;20129;-55
2022/05/25 01:09:13;;;;;;;2.67;2.00;;;;;;;;;;5034451;28;20132;-53
2022/05/25 01:11:40;;;;;;;2.85;2.10;;;;;;;;;;5034138;28;20024;-52
2022/05/25 01:14:24;;;;;;;3.85;1.83;;;;;;;;;;5030692;28;20443;-52
2022/05/25 01:17:01;;;;;;;3.17;2.22;;;;;;;;;;5029023;28;20132;-54
2022/05/25 01:19:29;;;;;;;2.92;2.20;;;;;;;;;;5034194;28;20053;-52
2022/05/25 01:22:00;;;;;;;3.00;2.20;;;;;;;;;;5032153;28;20544;-49
2022/05/25 01:24:31;;;;;;;2.10;1.83;;;;;;;;;;5033581;28;20637;-52
2022/05/25 01:27:17;;;;;;;3.35;2.00;;;;;;;;;;5034281;28;20487;-50
2022/05/25 01:30:03;;;;;;;2.88;2.20;;;;;;;;;;5027456;28;20082;-51
2022/05/25 01:32:46;;;;;;;3.45;1.92;;;;;;;;;;5014563;28;20057;-52
2022/05/25 01:35:31;;;;;;;2.75;2.00;;;;;;;;;;5031177;28;20033;-52
2022/05/25 01:38:05;;;;;;;2.60;1.88;;;;;;;;;;5027886;28;20374;-51
2022/05/25 01:40:37;;;;;;;3.20;2.35;;;;;;;;;;5015940;28;20025;-51
2022/05/25 01:43:06;;;;;;;4.32;2.30;;;;;;;;;;5027170;28;20034;-52
2022/05/25 01:45:34;;;;;;;4.55;2.65;;;;;;;;;;5027231;28;20037;-54
2022/05/25 01:48:03;;;;;;;4.75;2.50;;;;;;;;;;5024856;28;20104;-51
2022/05/25 01:50:41;;;;;;;4.72;2.17;;;;;;;;;;5031267;28;20347;-51
2022/05/25 01:53:07;;;;;;;2.97;2.30;;;;;;;;;;5033863;28;20465;-51
2022/05/25 01:55:35;;;;;;;3.28;2.45;;;;;;;;;;5033752;28;20029;-53
2022/05/25 01:58:05;;;;;;;3.10;2.13;;;;;;;;;;5026634;28;20034;-52
2022/05/25 02:00:39;;;;;;;3.55;2.30;;;;;;;;;;5030056;28;20036;-51
2022/05/25 02:06:01;;;;;;;2.70;2.13;;;;;;;;;;5033549;28;20048;-54
2022/05/25 02:08:43;;;;;;;2.83;2.20;;;;;;;;;;5031682;28;20630;-52
2022/05/25 02:11:16;;;;;;;3.65;2.40;;;;;;;;;;5033281;28;20026;-52
2022/05/25 02:13:48;;;;;;;2.90;2.15;;;;;;;;;;5033265;28;20028;-54
2022/05/25 02:16:22;;;;;;;2.42;2.10;;;;;;;;;;5033219;28;20103;-51
2022/05/25 02:18:58;;;;;;;3.13;2.28;;;;;;;;;;5030789;28;20488;-53
2022/05/25 02:21:29;;;;;;;3.97;2.47;;;;;;;;;;5033183;28;20029;-51
2022/05/25 02:24:17;;;;;;;2.95;2.08;;;;;;;;;;5027863;28;20033;-51
2022/05/25 02:26:48;;;;;;;3.40;2.30;;;;;;;;;;5033278;28;20021;-50
2022/05/25 02:29:26;;;;;;;6.57;1.92;;;;;;;;;;5032888;28;20493;-51
2022/05/25 02:31:54;;;;;;;3.53;2.08;;;;;;;;;;5031376;28;20183;-51
2022/05/25 02:34:21;;;;;;;2.75;2.00;;;;;;;;;;5032773;28;20040;-51
2022/05/25 02:36:48;;;;;;;3.03;2.05;;;;;;;;;;5032442;28;20407;-51
2022/05/25 02:39:14;;;;;;;3.40;2.35;;;;;;;;;;5023534;28;20521;-51
2022/05/25 02:41:48;;;;;;;4.88;2.50;;;;;;;;;;5029894;28;20115;-51
2022/05/25 02:44:14;;;;;;;;;;;;;;;;;;5025511;28;20080;-53
2022/05/25 02:46:40;;;;;;;3.17;2.15;;;;;;;;;;5026877;28;20266;-53
2022/05/25 02:49:07;;;;;;;4.82;2.50;;;;;;;;;;5025627;28;20022;-51
2022/05/25 02:51:33;;;;;;;2.60;2.10;;;;;;;;;;5032395;28;20060;-52
2022/05/25 02:54:00;;;;;;;3.40;2.10;;;;;;;;;;5031232;28;20021;-51
2022/05/25 02:56:26;;;;;;;2.97;2.28;;;;;;;;;;5032677;28;20381;-51
2022/05/25 02:58:52;;;;;;;2.63;2.20;;;;;;;;;;5032761;28;20487;-51
2022/05/25 03:01:18;;;;;;;2.35;1.98;;;;;;;;;;5027292;28;20076;-52
2022/05/25 03:03:44;;;;;;;4.93;2.55;;;;;;;;;;5025471;28;20115;-51
2022/05/25 03:06:10;;;;;;;3.60;2.47;;;;;;;;;;5034818;28;20017;-53
2022/05/25 03:08:36;;;;;;;3.55;2.55;;;;;;;;;;5052125;28;20108;-51
2022/05/25 03:11:03;;;;;;;3.10;2.40;;;;;;;;;;5036538;28;20057;-53
2022/05/25 03:13:29;;;;;;;2.95;2.17;;;;;;;;;;5030693;28;20031;-52
2022/05/25 03:15:59;;;;;;;2.78;2.22;;;;;;;;;;5045384;28;20537;-52
2022/05/25 03:18:25;;;;;;;3.50;2.50;;;;;;;;;;5049517;28;20033;-51
2022/05/25 03:20:51;;;;;;;3.42;2.58;;;;;;;;;;5045608;28;20044;-51
2022/05/25 03:23:17;;;;;;;2.95;2.38;;;;;;;;;;5043879;28;20029;-51
2022/05/25 03:25:44;;;;;;;3.00;2.25;;;;;;;;;;5047264;28;20108;-50
2022/05/25 03:28:10;;;;;;;2.92;2.22;;;;;;;;;;5043469;28;20028;-51
2022/05/25 03:30:36;;;;;;;3.17;2.50;;;;;;;;;;5042790;28;20025;-52
2022/05/25 03:33:02;;;;;;;3.70;2.58;;;;;;;;;;5044197;28;20017;-51
2022/05/25 03:35:28;;;;;;;3.13;2.20;;;;;;;;;;5050913;28;20029;-51
2022/05/25 03:37:54;;;;;;;3.05;2.22;;;;;;;;;;5043336;28;20092;-52
2022/05/25 03:40:20;;;;;;;2.92;2.35;;;;;;;;;;5051142;28;20529;-51
2022/05/25 03:42:47;;;;;;;3.10;2.28;;;;;;;;;;5051727;28;20021;-51
2022/05/25 03:45:14;;;;;;;2.70;2.10;;;;;;;;;;5023745;28;20026;-51
2022/05/25 03:47:40;;;;;;;4.93;2.22;;;;;;;;;;5027293;28;20025;-53
2022/05/25 03:50:07;;;;;;;3.72;2.38;;;;;;;;;;5050311;28;20058;-51
2022/05/25 03:52:33;;;;;;;2.47;2.28;;;;;;;;;;5044125;28;20472;-51
2022/05/25 03:54:59;;;;;;;2.97;2.55;;;;;;;;;;5051462;28;20025;-51
2022/05/25 03:57:25;;;;;;;3.55;2.17;;;;;;;;;;5030692;28;20028;-50
2022/05/25 03:59:51;;;;;;;3.38;2.22;;;;;;;;;;5036363;28;20484;-51
2022/05/25 04:02:17;;;;;;;3.20;2.20;;;;;;;;;;5027540;28;20040;-52
2022/05/25 04:04:43;;;;;;;3.42;2.63;;;;;;;;;;5038661;28;20476;-51
2022/05/25 04:07:09;;;;;;;5.97;2.88;;;;;;;;;;5037287;28;20046;-51
2022/05/25 04:09:36;;;;;;;3.65;2.75;;;;;;;;;;5031389;28;20025;-52
2022/05/25 04:12:02;;;;;;;7.43;3.22;;;;;;;;;;5023205;28;20033;-50
2022/05/25 04:14:28;;;;;;;3.15;2.53;;;;;;;;;;5029110;28;20091;-54
2022/05/25 04:16:54;;;;;;;4.18;2.70;;;;;;;;;;5021958;28;20033;-51
2022/05/25 04:19:20;;;;;;;4.38;3.13;;;;;;;;;;5002292;28;20124;-51
2022/05/25 04:21:46;;;;;;;3.67;2.72;;;;;;;;;;5019208;28;20040;-50
2022/05/25 04:24:12;;;;;;;5.40;2.85;;;;;;;;;;5031015;28;20029;-51
2022/05/25 04:26:39;;;;;;;3.58;2.58;;;;;;;;;;5024859;28;20025;-51
2022/05/25 04:29:05;;;;;;;4.35;2.72;;;;;;;;;;5028677;28;20499;-54
2022/05/25 04:31:31;;;;;;;3.53;2.83;;;;;;;;;;5030991;28;20034;-52
2022/05/25 04:33:57;;;;;;;4.93;3.35;;;;;;;;;;5027301;28;20032;-52
2022/05/25 04:36:23;;;;;;;3.78;2.83;;;;;;;;;;5023968;28;20045;-51
2022/05/25 04:38:49;;;;;;;4.55;2.50;;;;;;;;;;5024276;28;20045;-51
2022/05/25 04:41:15;;;;;;;5.68;2.55;;;;;;;;;;5024502;28;20022;-51
2022/05/25 04:43:41;;;;;;;5.30;3.58;;;;;;;;;;5026587;28;20275;-54
2022/05/25 04:46:08;;;;;;;4.20;3.05;;;;;;;;;;5023362;28;20026;-51
2022/05/25 04:48:35;;;;;;;5.93;2.83;;;;;;;;;;5023263;28;20017;-52
2022/05/25 04:51:01;;;;;;;4.05;3.03;;;;;;;;;;5026024;28;20032;-53
2022/05/25 04:53:27;;;;;;;4.25;2.78;;;;;;;;;;5015029;28;20124;-54
2022/05/25 04:58:42;;;;;;;4.03;3.15;;;;;;;;;;5024958;28;20048;-51
2022/05/25 05:01:09;;;;;;;3.47;2.72;;;;;;;;;;5019878;28;20079;-51
2022/05/25 05:03:35;;;;;;;5.63;3.78;;;;;;;;;;5021160;28;20117;-52
2022/05/25 05:06:02;;;;;;;4.35;3.10;;;;;;;;;;5027739;28;20072;-51
2022/05/25 05:08:28;;;;;;;4.75;3.20;;;;;;;;;;5022864;28;20136;-51
2022/05/25 05:10:55;;;;;;;5.68;3.00;;;;;;;;;;5018095;28;20536;-52
2022/05/25 05:13:21;;;;;;;4.57;3.42;;;;;;;;;;5017455;28;20022;-51
2022/05/25 05:15:51;;;;;;;3.92;2.85;;;;;;;;;;5017495;28;20092;-52
2022/05/25 05:18:23;;;;;;;4.40;2.95;;;;;;;;;;5021287;28;20053;-53
2022/05/25 05:20:49;;;;;;;6.18;3.50;;;;;;;;;;5022479;28;20029;-52
2022/05/25 05:23:15;;;;;;;4.80;3.40;;;;;;;;;;5016232;28;20080;-54
2022/05/25 05:25:42;;;;;;;6.45;3.50;;;;;;;;;;5011321;28;20026;-53
2022/05/25 05:28:09;;;;;;;4.80;3.50;;;;;;;;;;5030339;28;20044;-52
2022/05/25 05:30:38;;;;;;;4.57;3.60;;;;;;;;;;5012074;28;20033;-51
2022/05/25 05:33:04;;;;;;;3.97;3.30;;;;;;;;;;5019121;28;20026;-51
2022/05/25 05:35:30;;;;;;;6.80;3.33;;;;;;;;;;5022078;28;20040;-52
2022/05/25 05:37:57;;;;;;;5.10;3.38;;;;;;;;;;5025186;28;20046;-51
2022/05/25 05:40:23;;;;;;;4.35;3.30;;;;;;;;;;5024525;28;20048;-51
2022/05/25 05:42:51;;;;;;;5.10;3.83;;;;;;;;;;5024815;28;20112;-53
2022/05/25 05:45:18;;;;;;;4.88;3.55;;;;;;;;;;5029896;28;20029;-51
2022/05/25 05:47:50;;;;;;;4.88;3.72;;;;;;;;;;5030132;28;20104;-51
2022/05/25 05:50:16;;;;;;;4.72;3.53;;;;;;;;;;5028084;28;20477;-51
2022/05/25 05:52:42;;;;;;;4.53;3.33;;;;;;;;;;5025153;28;20014;-51
2022/05/25 05:55:09;;;;;;;5.00;3.47;;;;;;;;;;5027658;28;20049;-53
2022/05/25 05:57:36;;;;;;;5.88;3.50;;;;;;;;;;5021508;28;20476;-51
2022/05/25 06:00:04;;;;;;;4.50;3.47;;;;;;;;;;5032475;28;20107;-51
2022/05/25 06:02:30;;;;;;;6.70;3.40;;;;;;;;;;5020694;28;20090;-52
2022/05/25 06:04:56;;;;;;;4.80;3.50;;;;;;;;;;5028160;28;20033;-51
2022/05/25 06:07:22;;;;;;;5.13;3.47;;;;;;;;;;5025357;28;20056;-51
2022/05/25 06:09:48;;;;;;;6.88;3.53;;;;;;;;;;5023636;28;20045;-51
2022/05/25 06:12:14;;;;;;;5.53;3.30;;;;;;;;;;5033204;28;20075;-50
2022/05/25 06:14:40;;;;;;;4.00;3.00;;;;;;;;;;5032229;28;20119;-54
2022/05/25 06:19:51;;;;;;;5.82;3.53;;;;;;;;;;5024029;28;20049;-52
2022/05/25 06:22:20;;;;;;;4.88;2.83;;;;;;;;;;5015858;28;20022;-52
2022/05/25 06:24:48;;;;;;;4.72;3.50;;;;;;;;;;5022625;28;20035;-52
2022/05/25 06:27:14;;;;;;;5.32;2.90;;;;;;;;;;5030074;28;20025;-51
2022/05/25 06:29:42;;;;;;;4.60;2.50;;;;;;;;;;5029208;28;20057;-54
2022/05/25 06:32:09;;;;;;;3.70;2.95;;;;;;;;;;5028543;28;20025;-51
2022/05/25 06:34:36;;;;;;;5.18;3.45;;;;;;;;;;5024724;28;20026;-53
2022/05/25 06:37:03;;;;;;;4.55;3.28;;;;;;;;;;5027740;28;20435;-51
2022/05/25 06:39:33;;;;;;;5.10;2.78;;;;;;;;;;5016775;28;20157;-51
2022/05/25 06:41:59;;;;;;;4.47;3.05;;;;;;;;;;5030265;28;20037;-53
2022/05/25 06:44:25;;;;;;;5.30;3.00;;;;;;;;;;5018410;28;20092;-51
2022/05/25 06:46:51;;;;;;;6.20;2.72;;;;;;;;;;5007460;28;20029;-53
2022/05/25 06:49:17;;;;;;;6.63;2.13;;;;;;;;;;5017417;28;20014;-54
2022/05/25 06:51:44;;;;;;;3.00;2.42;;;;;;;;;;5027349;28;20041;-51
2022/05/25 06:54:12;;;;;;;3.92;2.53;;;;;;;;;;5026030;28;20029;-54
2022/05/25 06:56:38;;;;;;;3.10;1.98;;;;;;;;;;5024933;28;20654;-51
2022/05/25 06:59:05;;;;;;;3.90;2.30;;;;;;;;;;5029619;28;20049;-53
2022/05/25 07:01:31;;;;;;;2.97;2.05;;;;;;;;;;5030181;28;20029;-52
2022/05/25 07:03:57;;;;;;;3.33;2.38;;;;;;;;;;5022602;28;20037;-53
2022/05/25 07:06:23;;;;;;;2.80;2.17;;;;;;;;;;5031565;28;20163;-52
2022/05/25 07:08:49;;;;;;;2.72;1.95;;;;;;;;;;5045964;28;20025;-51
2022/05/25 07:11:15;;;;;;;4.32;2.60;;;;;;;;;;5051168;28;20054;-51
2022/05/25 07:13:41;;;;;;;3.28;1.98;;;;;;;;;;5008524;28;20456;-51
2022/05/25 07:16:09;;;;;;;3.67;1.90;;;;;;;;;;5023076;28;20071;-51
2022/05/25 07:18:36;;;;;;;2.88;2.28;;;;;;;;;;5024810;28;20029;-53
2022/05/25 07:21:04;;;;;;;3.15;1.75;;;;;;;;;;5021198;28;20022;-50
2022/05/25 07:23:31;;;;;;;4.43;2.30;;;;;;;;;;5014344;28;20121;-51
2022/05/25 07:25:57;;;;;;;2.97;1.92;;;;;;;;;;5041091;28;20029;-52
2022/05/25 07:28:23;;;;;;;2.35;1.85;;;;;;;;;;5030309;28;20389;-51
2022/05/25 07:30:50;;;;;;;2.80;2.05;;;;;;;;;;5034749;28;20113;-51
2022/05/25 07:33:15;;;;;;;3.40;2.00;;;;;;;;;;5033705;28;20034;-53
2022/05/25 07:35:41;;;;;;;3.58;2.10;;;;;;;;;;5030356;28;20391;-50
2022/05/25 07:38:08;;;;;;;3.00;2.00;;;;;;;;;;5034893;28;20108;-51
2022/05/25 07:40:36;;;;;;;5.18;1.85;;;;;;;;;;5044594;28;20041;-51
2022/05/25 07:43:04;;;;;;;6.40;2.25;;;;;;;;;;5035590;28;20481;-50
2022/05/25 07:45:32;;;;;;;3.85;2.17;;;;;;;;;;5041364;28;20059;-52
2022/05/25 07:47:58;;;;;;;4.63;1.88;;;;;;;;;;5031754;28;20127;-52
2022/05/25 07:50:24;;;;;;;2.45;1.73;;;;;;;;;;5026021;28;20018;-52
2022/05/25 07:52:54;;;;;;;7.40;2.20;;;;;;;;;;5037045;28;20543;-51
2022/05/25 07:55:20;;;;;;;4.70;2.25;;;;;;;;;;5024344;28;20025;-51
2022/05/25 07:57:46;;;;;;;2.92;1.85;;;;;;;;;;5035868;28;20116;-51
2022/05/25 08:00:14;;;;;;;3.28;2.08;;;;;;;;;;5020304;28;20179;-50
2022/05/25 08:05:47;;;;;;;3.80;1.85;;;;;;;;;;5027596;28;20467;-53
2022/05/25 08:08:15;;;;;;;4.28;2.35;;;;;;;;;;5022930;28;20053;-51
2022/05/25 08:10:42;;;;;;;3.10;2.03;;;;;;;;;;5019332;28;20121;-54
2022/05/25 08:13:08;;;;;;;6.35;1.80;;;;;;;;;;5017465;28;20044;-53
2022/05/25 08:15:34;;;;;;;4.20;2.45;;;;;;;;;;5028054;28;20034;-51
2022/05/25 08:18:01;;;;;;;3.80;1.63;;;;;;;;;;5022894;28;20113;-52
2022/05/25 08:20:29;;;;;;;3.88;2.22;;;;;;;;;;5014197;28;20127;-51
2022/05/25 08:22:55;;;;;;;3.97;2.65;;;;;;;;;;5028919;28;20511;-51
2022/05/25 08:25:21;;;;;;;3.67;1.80;;;;;;;;;;5030300;28;20033;-51
2022/05/25 08:27:47;;;;;;;3.15;2.20;;;;;;;;;;5025445;28;20139;-51
2022/05/25 08:30:15;;;;;;;6.63;2.30;;;;;;;;;;5019997;28;20034;-51
2022/05/25 08:32:41;;;;;;;5.60;1.83;;;;;;;;;;5029548;28;20029;-51
2022/05/25 08:35:08;;;;;;;4.20;2.50;;;;;;;;;;5030669;28;20037;-50
2022/05/25 08:37:34;;;;;;;3.38;2.03;;;;;;;;;;5019858;28;20033;-52
2022/05/25 08:40:00;;;;;;;5.55;2.42;;;;;;;;;;5022527;28;20083;-51
2022/05/25 08:42:28;;;;;;;5.47;2.60;;;;;;;;;;5030374;28;20398;-54
2022/05/25 08:44:56;;;;;;;3.13;1.95;;;;;;;;;;5021971;28;24250;-52
2022/05/25 08:47:22;;;;;;;7.22;2.15;;;;;;;;;;5005247;28;20504;-51
2022/05/25 08:49:51;;;;;;;4.93;2.30;;;;;;;;;;5030196;28;20374;-51
2022/05/25 08:52:21;;;;;;;5.95;2.10;;;;;;;;;;5031074;28;20101;-51
2022/05/25 08:54:47;;;;;;;2.40;1.92;;;;;;;;;;5010974;28;20057;-54
2022/05/25 08:57:17;;;;;;;6.10;2.47;;;;;;;;;;5024391;28;20117;-53
2022/05/25 08:59:47;;;;;;;5.07;2.22;;;;;;;;;;5020322;28;20037;-53
2022/05/25 09:02:20;;;;;;;6.07;1.98;;;;;;;;;;5029014;28;20109;-54
2022/05/25 09:04:46;;;;;;;;;;;;;;;;;;5020322;28;20120;-51
2022/05/25 09:07:16;;;;;;;4.80;2.22;;;;;;;;;;5028564;28;20011;-52
2022/05/25 09:09:43;;;;;;;2.35;1.52;;;;;;;;;;5029739;28;20061;-51
2022/05/25 09:12:12;;;;;;;4.28;2.00;;;;;;;;;;5020746;28;20049;-51
2022/05/25 09:14:48;;;;;;;5.30;2.05;;;;;;;;;;5017809;28;20449;-50
2022/05/25 09:17:35;;;;;;;4.78;1.75;;;;;;;;;;5020007;28;20087;-50
2022/05/25 09:20:02;;;;;;;2.25;1.48;;;;;;;;;;5022885;28;20037;-51
2022/05/25 09:22:31;;;;;;;3.30;1.98;;;;;;;;;;5028926;28;20117;-51
2022/05/25 09:24:58;;;;;;;3.85;1.35;;;;;;;;;;5030459;28;20055;-50
2022/05/25 09:27:27;;;;;;;2.67;1.65;;;;;;;;;;5026401;28;20092;-51
2022/05/25 09:29:55;;;;;;;4.53;1.33;;;;;;;;;;5027678;28;20021;-50
2022/05/25 09:32:40;;;;;;;5.50;1.40;;;;;;;;;;5030975;28;20053;-50
2022/05/25 09:35:12;;;;;;;3.05;1.20;;;;;;;;;;5023846;28;20120;-51
2022/05/25 09:37:45;;;;;;;2.00;1.00;;;;;;;;;;5028509;28;20056;-50
2022/05/25 09:40:19;;;;;;;1.98;1.00;;;;;;;;;;5027713;28;20079;-49
2022/05/25 09:42:49;;;;;;;3.08;1.13;;;;;;;;;;5033820;28;20440;-50
2022/05/25 09:45:15;;;;;;;1.60;1.05;;;;;;;;;;5024755;28;20517;-51
2022/05/25 09:47:43;;;;;;;2.42;1.10;;;;;;;;;;5029568;28;20045;-50
2022/05/25 09:50:15;;;;;;;2.20;1.20;;;;;;;;;;5017496;28;20053;-51
2022/05/25 09:52:43;;;;;;;2.78;0.95;;;;;;;;;;5031460;28;20021;-50
2022/05/25 09:55:11;;;;;;;2.47;0.85;;;;;;;;;;5020877;28;20120;-52
2022/05/25 09:57:39;;;;;;;2.33;1.20;;;;;;;;;;5022563;28;20029;-53
2022/05/25 10:00:09;;;;;;;1.98;1.08;;;;;;;;;;5013715;28;20511;-52
2022/05/25 10:02:43;;;;;;;2.72;0.70;;;;;;;;;;5025047;28;20031;-51
2022/05/25 10:05:09;;;;;;;;;;;;;;;;;;5025744;28;20029;-50
2022/05/25 10:07:39;;;;;;;2.83;1.08;;;;;;;;;;5036973;28;20651;-51
2022/05/25 10:10:09;;;;;;;2.92;0.80;;;;;;;;;;5051608;28;20511;-51
2022/05/25 10:12:38;;;;;;;2.03;0.75;;;;;;;;;;5038120;28;20037;-49
2022/05/25 10:15:09;;;;;;;0.90;0.60;;;;;;;;;;5042919;28;20392;-53
2022/05/25 10:17:40;;;;;;;2.15;0.80;;;;;;;;;;5046863;28;20021;-50
2022/05/25 10:20:27;;;;;;;0.50;0.50;;;;;;;;;;5049371;28;20053;-54
2022/05/25 10:23:01;;;;;;;1.50;0.57;;;;;;;;;;5047314;28;20033;-50
2022/05/25 10:25:27;;;;;;;2.67;0.70;;;;;;;;;;5050578;28;20029;-52
2022/05/25 10:27:54;;;;;;;2.95;0.90;;;;;;;;;;5037790;28;20933;-53
2022/05/25 10:39:13;;;;;;;1.50;0.80;;;;;;;;;;5041392;28;20075;-52
2022/05/25 10:41:39;;;;;;;4.25;0.68;;;;;;;;;;5040242;28;20032;-53
2022/05/25 10:44:08;;;;;;;2.67;0.80;;;;;;;;;;5041684;28;20029;-53
2022/05/25 10:46:35;;;;;;;3.13;0.70;;;;;;;;;;5038831;28;20024;-50
2022/05/25 10:49:07;;;;;;;0.70;0.60;;;;;;;;;;5044992;28;20040;-50
2022/05/25 10:51:54;;;;;;;0.80;0.50;;;;;;;;;;5047230;28;20029;-53
2022/05/25 10:54:44;;;;;;;1.55;0.57;;;;;;;;;;5042600;28;20071;-53
2022/05/25 10:57:29;;;;;;;1.13;0.60;;;;;;;;;;5046313;28;20116;-50
2022/05/25 11:00:14;;;;;;;3.35;0.68;;;;;;;;;;5037308;28;20029;-51
2022/05/25 11:02:49;;;;;;;1.60;0.50;;;;;;;;;;5038210;28;20037;-50
2022/05/25 11:05:15;;;;;;;1.58;0.55;;;;;;;;;;5043874;28;20061;-50
2022/05/25 11:07:42;;;;;;;2.47;0.70;;;;;;;;;;5040615;28;20091;-51
2022/05/25 11:10:14;;;;;;;0.98;0.50;;;;;;;;;;5036028;28;20022;-50
2022/05/25 11:13:01;;;;;;;1.73;0.60;;;;;;;;;;5040722;28;20053;-53
2022/05/25 11:15:27;;;;;;;0.73;0.68;;;;;;;;;;5044077;28;20171;-50
2022/05/25 11:18:08;;;;;;;2.47;0.50;;;;;;;;;;5051541;28;20483;-50
2022/05/25 11:20:45;;;;;;;1.60;0.50;;;;;;;;;;5040022;28;20038;-50
2022/05/25 11:23:19;;;;;;;1.13;0.30;;;;;;;;;;5038881;28;20032;-50
2022/05/25 11:25:45;;;;;;;1.48;0.40;;;;;;;;;;5043023;28;20030;-54
2022/05/25 11:28:16;;;;;;;0.80;0.45;;;;;;;;;;5045035;28;20090;-53
2022/05/25 11:30:48;;;;;;;0.68;0.40;;;;;;;;;;5037546;28;20024;-50
2022/05/25 11:33:39;;;;;;;0.93;0.50;;;;;;;;;;5038214;28;20040;-50
2022/05/25 11:36:15;;;;;;;1.77;0.40;;;;;;;;;;5050652;28;20025;-50
2022/05/25 11:39:02;;;;;;;2.22;0.55;;;;;;;;;;5032748;28;20469;-50
2022/05/25 11:41:44;;;;;;;0.50;0.20;;;;;;;;;;5045414;28;20088;-50
2022/05/25 11:44:28;;;;;;;1.10;0.45;;;;;;;;;;5049748;28;20025;-50
2022/05/25 11:46:57;;;;;;;1.08;0.47;;;;;;;;;;5039419;28;20041;-54
2022/05/25 11:49:35;;;;;;;0.60;0.40;;;;;;;;;;5041282;28;20027;-50
2022/05/25 11:52:16;;;;;;;1.13;0.40;;;;;;;;;;5028349;28;20071;-53
2022/05/25 11:54:54;;;;;;;0.70;0.32;;;;;;;;;;5031418;28;20037;-51
2022/05/25 11:57:27;;;;;;;1.27;0.40;;;;;;;;;;5037837;28;20530;-51
2022/05/25 12:00:07;;;;;;;1.63;0.47;;;;;;;;;;5044820;28;20577;-53
2022/05/25 12:02:48;;;;;;;0.90;0.40;;;;;;;;;;5051180;28;20492;-53
2022/05/25 12:05:30;;;;;;;2.85;0.35;;;;;;;;;;5044881;28;20040;-54
2022/05/25 12:08:09;;;;;;;0.90;0.40;;;;;;;;;;5038509;28;20056;-52
2022/05/25 12:10:40;;;;;;;1.38;0.38;;;;;;;;;;5042021;28;20625;-53
2022/05/25 12:13:16;;;;;;;0.38;0.20;;;;;;;;;;5037571;28;20388;-54
2022/05/25 12:15:49;;;;;;;0.90;0.30;;;;;;;;;;5034394;28;20141;-53
2022/05/25 12:18:20;;;;;;;1.17;0.40;;;;;;;;;;5039878;28;20035;-53
2022/05/25 12:21:06;;;;;;;0.20;0.20;;;;;;;;;;5043774;28;20040;-52
2022/05/25 12:23:41;;;;;;;2.85;0.70;;;;;;;;;;5043594;28;20025;-51
2022/05/25 12:26:12;;;;;;;1.58;0.60;;;;;;;;;;5042034;28;20029;-53
2022/05/25 12:28:39;;;;;;;2.35;0.40;;;;;;;;;;5029789;28;20026;-50
2022/05/25 12:31:08;;;;;;;0.98;0.50;;;;;;;;;;5024135;28;20258;-54
2022/05/25 12:33:35;;;;;;;3.47;0.45;;;;;;;;;;5030252;28;20021;-52
2022/05/25 12:36:07;;;;;;;4.35;0.45;;;;;;;;;;5032097;28;20025;-53
2022/05/25 12:38:33;;;;;;;0.93;0.30;;;;;;;;;;5043221;28;20029;-53
2022/05/25 12:41:20;;;;;;;0.85;0.30;;;;;;;;;;5046080;28;20116;-54
2022/05/25 12:43:46;;;;;;;1.75;0.40;;;;;;;;;;5034446;28;20140;-54
2022/05/25 12:48:59;;;;;;;1.20;0.20;;;;;;;;;;5046190;28;20071;-54
2022/05/25 12:51:32;;;;;;;2.97;0.40;;;;;;;;;;5034822;28;20082;-54
2022/05/25 12:53:58;;;;;;;;;;;;;;;;;;5036222;28;20104;-54
2022/05/25 12:56:24;;;;;;;0.82;0.30;;;;;;;;;;5040071;28;20003;-52
2022/05/25 12:58:56;;;;;;;0.47;0.20;;;;;;;;;;5037276;28;20037;-53
2022/05/25 13:01:26;;;;;;;1.00;0.35;;;;;;;;;;5032377;28;20108;-53
2022/05/25 13:03:52;;;;;;;2.65;0.30;;;;;;;;;;5049982;28;20045;-53
2022/05/25 13:06:22;;;;;;;0.93;0.20;;;;;;;;;;5012138;28;974496;-54
2022/05/25 13:08:48;;;;;;;0.35;0.30;;;;;;;;;;5040361;28;20064;-54
2022/05/25 13:11:29;;;;;;;2.10;0.50;;;;;;;;;;5053514;28;20040;-52
2022/05/25 13:13:55;;;;;;;0.80;0.40;;;;;;;;;;5043430;28;20480;-50
2022/05/25 13:16:51;;;;;;;0.55;0.30;;;;;;;;;;5041262;28;20099;-51
2022/05/25 13:19:22;;;;;;;2.15;0.38;;;;;;;;;;5032286;28;20128;-53
2022/05/25 13:22:02;;;;;;;1.10;0.60;;;;;;;;;;5044457;28;20037;-54
2022/05/25 13:24:46;;;;;;;1.35;0.30;;;;;;;;;;5035497;28;20044;-54
2022/05/25 13:27:15;;;;;;;1.60;0.43;;;;;;;;;;5029220;28;20030;-51
2022/05/25 13:30:01;;;;;;;0.70;0.32;;;;;;;;;;5045751;28;20112;-51
2022/05/25 13:32:46;;;;;;;1.60;0.38;;;;;;;;;;5036142;28;20033;-52
2022/05/25 13:35:24;;;;;;;1.27;0.20;;;;;;;;;;5039936;28;20079;-54
2022/05/25 13:37:55;;;;;;;1.05;0.45;;;;;;;;;;5041805;28;20068;-54
2022/05/25 13:40:22;;;;;;;1.45;0.32;;;;;;;;;;5045044;28;20025;-53
2022/05/25 13:42:49;;;;;;;1.25;0.52;;;;;;;;;;5049440;28;20140;-54
2022/05/25 13:45:21;;;;;;;0.82;0.20;;;;;;;;;;5045941;28;20487;-52
2022/05/25 13:48:01;;;;;;;2.30;0.22;;;;;;;;;;5043302;28;20112;-54
2022/05/25 13:50:35;;;;;;;2.17;0.43;;;;;;;;;;5035619;28;20032;-54
2022/05/25 13:53:02;;;;;;;0.30;0.17;;;;;;;;;;5036943;28;20430;-54
2022/05/25 13:55:35;;;;;;;2.35;0.75;;;;;;;;;;5045885;28;20145;-54
2022/05/25 13:58:02;;;;;;;2.40;0.47;;;;;;;;;;5038948;28;20051;-54
2022/05/25 14:00:28;;;;;;;4.72;0.30;;;;;;;;;;5047070;28;20036;-55
2022/05/25 14:03:00;;;;;;;0.60;0.20;;;;;;;;;;5033283;28;20427;-54
2022/05/25 14:05:28;;;;;;;0.45;0.17;;;;;;;;;;5046387;28;20035;-54
2022/05/25 14:07:54;;;;;;;0.85;0.20;;;;;;;;;;5046277;28;20037;-55
2022/05/25 14:13:15;;;;;;;0.28;0.20;;;;;;;;;;5042592;28;20090;-55
2022/05/25 14:15:41;;;;;;;1.00;0.23;;;;;;;;;;5057274;28;20037;-53
2022/05/25 14:18:07;;;;;;;2.05;0.20;;;;;;;;;;5028539;28;20536;-53
2022/05/25 14:20:36;;;;;;;2.10;0.40;;;;;;;;;;5043973;28;20100;-54
2022/05/25 14:23:02;;;;;;;1.10;0.20;;;;;;;;;;5043865;28;20037;-55
2022/05/25 14:25:30;;;;;;;0.70;0.20;;;;;;;;;;5036485;28;20024;-53
2022/05/25 14:27:56;;;;;;;0.17;0.08;;;;;;;;;;5043078;28;20479;-54
2022/05/25 14:30:25;;;;;;;0.32;0.10;;;;;;;;;;5048473;28;20377;-52
2022/05/25 14:33:05;;;;;;;0.88;0.20;;;;;;;;;;5039097;28;20028;-54
2022/05/25 14:35:33;;;;;;;1.27;0.38;;;;;;;;;;5045119;28;20024;-55
2022/05/25 14:38:02;;;;;;;0.85;0.20;;;;;;;;;;5041936;28;20122;-55
2022/05/25 14:40:32;;;;;;;1.67;0.17;;;;;;;;;;5049618;28;20464;-54
2022/05/25 14:43:00;;;;;;;0.35;0.20;;;;;;;;;;5042552;28;20021;-54
2022/05/25 14:45:27;;;;;;;1.20;0.20;;;;;;;;;;5043906;28;20028;-55
2022/05/25 14:47:57;;;;;;;3.25;0.35;;;;;;;;;;5044552;28;20029;-53
2022/05/25 14:50:27;;;;;;;0.52;0.20;;;;;;;;;;5046486;28;20040;-54
2022/05/25 14:53:13;;;;;;;0.52;0.10;;;;;;;;;;5047507;28;20033;-55
2022/05/25 14:55:40;;;;;;;0.10;0.10;;;;;;;;;;5044287;28;20032;-54
2022/05/25 14:58:06;;;;;;;0.00;0.00;;;;;;;;;;5048058;28;20515;-53
2022/05/25 15:00:35;;;;;;;0.85;0.20;;;;;;;;;;5039648;28;20036;-53
2022/05/25 15:03:02;;;;;;;0.88;0.20;;;;;;;;;;5050975;28;20147;-54
2022/05/25 15:05:37;;;;;;;1.08;0.20;;;;;;;;;;5043850;28;20029;-54
2022/05/25 15:08:04;;;;;;;0.30;0.17;;;;;;;;;;5044207;28;20124;-52
2022/05/25 15:10:34;;;;;;;0.68;0.40;;;;;;;;;;5038981;28;20481;-53
2022/05/25 15:13:00;;;;;;;0.75;0.20;;;;;;;;;;5039476;28;20033;-51
2022/05/25 15:18:36;;;;;;;1.52;0.30;;;;;;;;;;5015769;28;20076;-53
2022/05/25 15:21:12;;;;;;;1.20;0.30;;;;;;;;;;5037838;28;20037;-51
2022/05/25 15:23:41;;;;;;;0.50;0.10;;;;;;;;;;5041593;28;20637;-51
2022/05/25 15:26:11;;;;;;;1.65;0.30;;;;;;;;;;5039910;28;20104;-53